createdAt,value
2022-12-17T00:02:13.896Z,10.35
2022-12-17T00:05:18.158Z,9.88
2022-12-17T00:08:22.493Z,9.63
2022-12-17T00:11:27.258Z,8.80
2022-12-17T00:14:31.454Z,9.43
2022-12-17T00:17:35.437Z,9.38
2022-12-17T00:20:47.239Z,8.82
2022-12-17T00:23:51.473Z,7.70
2022-12-17T00:26:56.258Z,7.72
2022-12-17T00:30:00.867Z,7.65
2022-12-17T00:33:05.482Z,8.57
2022-12-17T00:36:13.866Z,7.50
2022-12-17T00:39:17.733Z,7.53
2022-12-17T00:42:21.800Z,7.63
2022-12-17T00:45:26.548Z,8.18
2022-12-17T00:48:32.211Z,7.03
2022-12-17T00:51:36.482Z,9.20
2022-12-17T00:54:40.743Z,7.15
2022-12-17T00:57:45.208Z,8.05
2022-12-17T01:00:52.525Z,8.13
2022-12-17T01:04:00.515Z,8.00
2022-12-17T01:07:04.572Z,6.85
2022-12-17T01:10:08.650Z,8.18
2022-12-17T01:13:12.776Z,7.90
2022-12-17T01:16:27.943Z,6.82
2022-12-17T01:19:32.385Z,7.38
2022-12-17T01:22:36.217Z,7.60
2022-12-17T01:25:40.128Z,7.35
2022-12-17T01:28:45.486Z,8.65
2022-12-17T01:31:49.945Z,9.90
2022-12-17T01:34:54.323Z,7.53
2022-12-17T01:37:58.591Z,9.18
2022-12-17T01:41:02.935Z,8.23
2022-12-17T01:44:06.978Z,7.57
2022-12-17T01:47:11.580Z,9.05
2022-12-17T01:50:29.265Z,7.82
2022-12-17T01:53:36.808Z,11.35
2022-12-17T01:56:41.567Z,7.38
2022-12-17T02:00:06.695Z,9.20
2022-12-17T02:03:18.404Z,7.57
2022-12-17T02:06:33.263Z,7.20
2022-12-17T02:09:51.933Z,8.15
2022-12-17T02:13:25.588Z,8.60
2022-12-17T02:16:50.604Z,10.13
2022-12-17T02:20:09.688Z,9.52
2022-12-17T02:23:37.478Z,11.02
2022-12-17T02:27:07.636Z,6.72
2022-12-17T02:30:20.136Z,7.38
2022-12-17T02:33:26.883Z,6.97
2022-12-17T02:36:31.425Z,8.70
2022-12-17T02:39:36.736Z,8.57
2022-12-17T02:42:44.750Z,6.45
2022-12-17T02:45:51.843Z,5.00
2022-12-17T02:48:56.316Z,5.18
2022-12-17T02:52:03.480Z,4.32
2022-12-17T02:55:08.377Z,4.93
2022-12-17T02:58:12.835Z,5.18
2022-12-17T03:01:16.902Z,6.72
2022-12-17T03:04:21.382Z,7.40
2022-12-17T03:07:26.253Z,6.25
2022-12-17T03:10:30.694Z,5.40
2022-12-17T03:13:46.139Z,5.30
2022-12-17T03:16:50.525Z,4.00
2022-12-17T03:19:54.962Z,4.47
2022-12-17T03:22:58.905Z,6.05
2022-12-17T03:26:02.795Z,4.70
2022-12-17T03:29:07.205Z,4.15
2022-12-17T03:32:11.045Z,4.78
2022-12-17T03:35:14.997Z,5.38
2022-12-17T03:38:18.862Z,5.38
2022-12-17T03:41:23.037Z,4.32
2022-12-17T03:44:27.459Z,4.40
2022-12-17T03:47:31.334Z,4.65
2022-12-17T03:50:35.505Z,4.15
2022-12-17T03:53:39.618Z,4.25
2022-12-17T03:56:44.448Z,4.88
2022-12-17T03:59:48.701Z,4.50
2022-12-17T04:02:53.020Z,3.72
2022-12-17T04:05:57.638Z,4.90
2022-12-17T04:09:01.670Z,4.40
2022-12-17T04:12:06.100Z,5.45
2022-12-17T04:15:10.274Z,4.70
2022-12-17T04:18:14.861Z,4.38
2022-12-17T04:21:18.847Z,4.72
2022-12-17T04:24:22.834Z,3.78
2022-12-17T04:27:26.832Z,4.22
2022-12-17T04:30:31.290Z,4.13
2022-12-17T04:33:35.455Z,5.10
2022-12-17T04:36:40.241Z,4.20
2022-12-17T04:39:55.409Z,4.05
2022-12-17T04:43:00.004Z,3.70
2022-12-17T04:46:08.934Z,3.85
2022-12-17T04:49:13.101Z,3.65
2022-12-17T04:52:17.066Z,2.90
2022-12-17T04:55:21.172Z,3.50
2022-12-17T04:58:28.125Z,2.72
2022-12-17T05:01:32.210Z,2.97
2022-12-17T05:04:36.617Z,2.83
2022-12-17T05:07:40.907Z,2.72
2022-12-17T05:10:44.720Z,2.90
2022-12-17T05:13:48.645Z,3.08
2022-12-17T05:16:53.285Z,2.90
2022-12-17T05:19:58.587Z,3.40
2022-12-17T05:23:02.955Z,3.30
2022-12-17T05:26:07.090Z,2.92
2022-12-17T05:29:15.851Z,2.40
2022-12-17T05:32:20.210Z,3.10
2022-12-17T05:35:25.114Z,5.38
2022-12-17T05:38:30.001Z,4.95
2022-12-17T05:41:34.323Z,3.63
2022-12-17T05:44:38.177Z,3.90
2022-12-17T05:47:42.268Z,4.50
2022-12-17T05:50:47.272Z,4.57
2022-12-17T05:53:51.259Z,6.30
2022-12-17T05:56:55.217Z,4.35
2022-12-17T06:00:00.041Z,3.65
2022-12-17T06:03:04.339Z,7.25
2022-12-17T06:06:16.499Z,6.70
2022-12-17T06:09:20.770Z,4.33
2022-12-17T06:12:24.699Z,5.38
2022-12-17T06:15:28.886Z,4.50
2022-12-17T06:18:32.972Z,4.97
2022-12-17T06:21:37.029Z,3.15
2022-12-17T06:24:45.766Z,4.63
2022-12-17T06:27:50.383Z,2.88
2022-12-17T06:30:54.474Z,3.75
2022-12-17T06:33:59.031Z,4.38
2022-12-17T06:37:03.574Z,3.83
2022-12-17T06:40:07.768Z,4.90
2022-12-17T06:43:15.258Z,3.17
2022-12-17T06:46:19.161Z,3.90
2022-12-17T06:49:23.526Z,4.25
2022-12-17T06:52:27.441Z,2.97
2022-12-17T06:55:31.432Z,4.03
2022-12-17T06:58:35.488Z,3.50
2022-12-17T07:01:39.732Z,4.50
2022-12-17T07:04:44.162Z,3.17
2022-12-17T07:07:47.877Z,3.92
2022-12-17T07:10:51.896Z,2.70
2022-12-17T07:14:03.986Z,2.45
2022-12-17T07:17:08.237Z,1.53
2022-12-17T07:20:12.517Z,2.38
2022-12-17T07:23:16.646Z,3.38
2022-12-17T07:26:20.723Z,4.75
2022-12-17T07:29:25.309Z,5.55
2022-12-17T07:32:29.508Z,3.22
2022-12-17T07:35:33.372Z,4.20
2022-12-17T07:38:37.516Z,33.05
2022-12-17T07:41:41.194Z,6.13
2022-12-17T07:44:45.207Z,2.00
2022-12-17T07:47:49.124Z,5.32
2022-12-17T07:50:53.286Z,4.80
2022-12-17T07:53:57.594Z,3.75
2022-12-17T07:57:01.626Z,1.83
2022-12-17T08:00:05.797Z,2.50
2022-12-17T08:03:15.911Z,2.40
2022-12-17T08:06:20.559Z,10.35
2022-12-17T08:09:24.545Z,2.95
2022-12-17T08:12:29.089Z,3.13
2022-12-17T08:15:33.360Z,3.15
2022-12-17T08:18:37.528Z,3.72
2022-12-17T08:21:41.741Z,3.58
2022-12-17T08:24:46.145Z,3.72
2022-12-17T08:27:50.611Z,3.30
2022-12-17T08:30:54.569Z,3.25
2022-12-17T08:34:02.268Z,2.75
2022-12-17T08:37:09.067Z,3.50
2022-12-17T08:40:13.142Z,3.00
2022-12-17T08:43:17.776Z,4.00
2022-12-17T08:46:21.870Z,2.70
2022-12-17T08:49:26.270Z,3.13
2022-12-17T08:52:30.245Z,3.28
2022-12-17T08:55:34.216Z,2.95
2022-12-17T08:58:38.345Z,2.40
2022-12-17T09:01:42.552Z,3.13
2022-12-17T09:04:46.415Z,2.30
2022-12-17T09:07:50.883Z,3.00
2022-12-17T09:10:55.369Z,3.97
2022-12-17T09:14:00.801Z,3.30
2022-12-17T09:17:05.316Z,2.20
2022-12-17T09:20:09.708Z,3.83
2022-12-17T09:23:13.812Z,4.70
2022-12-17T09:26:18.307Z,4.72
2022-12-17T09:29:22.597Z,3.20
2022-12-17T09:32:26.857Z,3.47
2022-12-17T09:35:30.573Z,3.33
2022-12-17T09:38:34.678Z,2.90
2022-12-17T09:41:44.595Z,4.38
2022-12-17T09:45:06.435Z,3.88
2022-12-17T09:48:28.101Z,4.45
2022-12-17T09:51:44.950Z,4.35
2022-12-17T09:55:03.570Z,4.28
2022-12-17T09:58:16.595Z,5.40
2022-12-17T10:01:21.320Z,6.68
2022-12-17T10:04:34.603Z,8.63
2022-12-17T10:07:45.442Z,9.55
2022-12-17T10:10:51.838Z,6.53
2022-12-17T10:13:56.093Z,7.07
2022-12-17T10:17:11.492Z,6.22
2022-12-17T10:20:17.287Z,7.10
2022-12-17T10:23:21.816Z,8.60
2022-12-17T10:26:26.546Z,7.22
2022-12-17T10:29:37.985Z,5.82
2022-12-17T10:35:56.590Z,4.80
2022-12-17T10:39:00.917Z,5.18
2022-12-17T10:42:05.924Z,5.57
2022-12-17T10:45:10.021Z,5.30
2022-12-17T10:48:14.188Z,6.05
2022-12-17T10:51:18.232Z,7.03
2022-12-17T10:54:46.945Z,6.07
2022-12-17T10:57:55.549Z,6.03
2022-12-17T11:01:00.225Z,6.72
2022-12-17T11:04:11.921Z,6.40
2022-12-17T11:07:16.502Z,7.00
2022-12-17T11:10:23.800Z,7.95
2022-12-17T11:13:34.747Z,7.68
2022-12-17T11:16:48.436Z,7.82
2022-12-17T11:20:15.721Z,7.03
2022-12-17T11:23:22.375Z,9.35
2022-12-17T11:26:33.173Z,13.77
2022-12-17T11:29:37.490Z,10.48
2022-12-17T11:32:41.768Z,9.80
2022-12-17T11:36:14.445Z,9.35
2022-12-17T11:39:33.892Z,11.30
2022-12-17T11:42:49.409Z,10.15
2022-12-17T11:46:11.972Z,10.48
2022-12-17T11:49:39.363Z,10.52
2022-12-17T11:52:43.479Z,9.48
2022-12-17T11:56:01.762Z,11.10
2022-12-17T11:59:11.570Z,11.35
2022-12-17T12:02:51.634Z,11.27
2022-12-17T12:06:15.703Z,9.75
2022-12-17T12:09:35.695Z,9.95
2022-12-17T12:13:09.984Z,10.80
2022-12-17T12:16:23.963Z,11.75
2022-12-17T12:19:57.664Z,10.10
2022-12-17T12:23:20.358Z,9.43
2022-12-17T12:26:37.908Z,10.38
2022-12-17T12:30:06.363Z,11.20
2022-12-17T12:33:25.770Z,11.48
2022-12-17T12:36:33.558Z,10.73
2022-12-17T12:39:49.259Z,11.27
2022-12-17T12:43:03.854Z,13.05
2022-12-17T12:46:33.518Z,13.77
2022-12-17T12:50:01.913Z,11.95
2022-12-17T12:53:14.136Z,12.75
2022-12-17T12:56:18.569Z,12.32
2022-12-17T12:59:31.066Z,15.25
2022-12-17T13:02:49.979Z,13.20
2022-12-17T13:05:40.044Z,11.50
2022-12-17T13:08:25.803Z,12.48
2022-12-17T13:11:28.049Z,15.40
2022-12-17T13:14:22.147Z,10.70
2022-12-17T13:17:17.901Z,14.38
2022-12-17T13:20:32.826Z,12.32
2022-12-17T13:23:26.752Z,13.15
2022-12-17T13:26:23.309Z,16.85
2022-12-17T13:29:37.274Z,14.07
2022-12-17T13:32:29.381Z,17.08
2022-12-17T13:35:33.180Z,14.55
2022-12-17T13:38:33.606Z,12.70
2022-12-17T13:41:22.250Z,15.00
2022-12-17T13:44:31.264Z,14.32
2022-12-17T13:47:24.422Z,16.23
2022-12-17T13:53:20.269Z,12.90
2022-12-17T13:56:05.938Z,14.77
2022-12-17T13:58:53.170Z,16.73
2022-12-17T14:01:47.067Z,14.80
2022-12-17T14:04:32.884Z,14.25
2022-12-17T14:07:18.336Z,14.85
2022-12-17T14:10:05.640Z,14.52
2022-12-17T14:12:51.482Z,14.38
2022-12-17T14:15:37.591Z,15.32
2022-12-17T14:18:23.263Z,15.85
2022-12-17T14:21:23.544Z,15.50
2022-12-17T14:24:13.649Z,14.82
2022-12-17T14:27:01.208Z,11.75
2022-12-17T14:29:47.109Z,16.05
2022-12-17T14:32:36.048Z,14.73
2022-12-17T14:35:31.632Z,16.23
2022-12-17T14:38:37.426Z,14.05
2022-12-17T14:41:44.813Z,16.02
2022-12-17T14:44:31.982Z,11.98
2022-12-17T14:47:23.846Z,15.40
2022-12-17T14:50:12.876Z,16.20
2022-12-17T14:53:05.019Z,13.95
2022-12-17T14:55:58.294Z,18.13
2022-12-17T14:58:47.503Z,15.57
2022-12-17T15:01:35.078Z,15.52
2022-12-17T15:04:22.220Z,16.42
2022-12-17T15:07:18.216Z,14.70
2022-12-17T15:10:10.975Z,15.50
2022-12-17T15:13:03.644Z,14.18
2022-12-17T15:15:52.001Z,14.40
2022-12-17T15:18:39.255Z,12.73
2022-12-17T15:21:27.736Z,17.17
2022-12-17T15:24:19.484Z,12.93
2022-12-17T15:27:04.904Z,12.60
2022-12-17T15:29:50.472Z,11.95
2022-12-17T15:32:36.278Z,9.48
2022-12-17T15:35:21.771Z,14.43
2022-12-17T15:38:07.743Z,18.70
2022-12-17T15:40:53.483Z,15.38
2022-12-17T15:43:39.135Z,9.70
2022-12-17T15:46:25.061Z,18.27
2022-12-17T15:49:10.919Z,17.92
2022-12-17T15:51:56.542Z,16.00
2022-12-17T15:54:42.912Z,17.35
2022-12-17T15:57:28.492Z,16.23
2022-12-17T16:00:14.490Z,15.73
2022-12-17T16:03:00.067Z,14.35
2022-12-17T16:05:46.024Z,16.13
2022-12-17T16:08:32.660Z,20.42
2022-12-17T16:11:18.063Z,19.63
2022-12-17T16:14:03.574Z,24.45
2022-12-17T16:16:49.596Z,25.50
2022-12-17T16:19:34.947Z,23.08
2022-12-17T16:22:20.454Z,17.88
2022-12-17T16:25:08.133Z,22.30
2022-12-17T16:27:55.285Z,22.63
2022-12-17T16:30:41.999Z,21.13
2022-12-17T16:33:35.593Z,20.63
2022-12-17T16:36:23.050Z,21.33
2022-12-17T16:39:15.698Z,21.05
2022-12-17T16:42:01.586Z,17.13
2022-12-17T16:44:47.456Z,18.33
2022-12-17T16:47:33.485Z,13.50
2022-12-17T16:50:21.134Z,14.93
2022-12-17T16:53:08.204Z,14.70
2022-12-17T16:55:54.415Z,18.05
2022-12-17T16:58:41.226Z,18.70
2022-12-17T17:01:28.727Z,17.27
2022-12-17T17:04:16.380Z,17.75
2022-12-17T17:07:01.652Z,14.50
2022-12-17T17:09:47.463Z,12.75
2022-12-17T17:12:33.552Z,15.70
2022-12-17T17:15:19.616Z,13.18
2022-12-17T17:18:05.729Z,17.15
2022-12-17T17:20:51.630Z,16.30
2022-12-17T17:23:37.879Z,16.60
2022-12-17T17:26:24.834Z,18.45
2022-12-17T17:29:11.045Z,19.70
2022-12-17T17:32:13.846Z,19.27
2022-12-17T17:34:59.872Z,18.67
2022-12-17T17:37:46.482Z,17.90
2022-12-17T17:40:32.792Z,20.27
2022-12-17T17:43:17.989Z,19.90
2022-12-17T17:46:09.445Z,20.92
2022-12-17T17:48:57.370Z,20.63
2022-12-17T17:54:50.456Z,24.67
2022-12-17T17:57:36.302Z,20.90
2022-12-17T18:00:21.628Z,20.15
2022-12-17T18:03:07.385Z,18.67
2022-12-17T18:05:53.390Z,21.20
2022-12-17T18:08:40.523Z,14.65
2022-12-17T18:11:29.995Z,15.77
2022-12-17T18:14:15.372Z,17.13
2022-12-17T18:17:00.870Z,16.33
2022-12-17T18:19:48.646Z,18.25
2022-12-17T18:22:33.874Z,15.13
2022-12-17T18:25:19.374Z,13.60
2022-12-17T18:28:04.859Z,14.60
2022-12-17T18:30:50.624Z,15.65
2022-12-17T18:33:38.300Z,19.23
2022-12-17T18:36:29.016Z,14.88
2022-12-17T18:39:20.790Z,14.98
2022-12-17T18:42:25.021Z,14.30
2022-12-17T18:45:11.050Z,17.40
2022-12-17T18:47:58.758Z,18.13
2022-12-17T18:50:44.853Z,16.25
2022-12-17T18:53:30.502Z,13.48
2022-12-17T18:56:38.003Z,15.20
2022-12-17T18:59:29.041Z,15.77
2022-12-17T19:02:15.425Z,15.38
2022-12-17T19:05:01.124Z,12.90
2022-12-17T19:07:46.855Z,15.77
2022-12-17T19:10:34.841Z,12.93
2022-12-17T19:13:20.219Z,13.93
2022-12-17T19:16:14.812Z,14.35
2022-12-17T19:19:02.985Z,13.65
2022-12-17T19:21:51.850Z,13.73
2022-12-17T19:24:38.401Z,14.32
2022-12-17T19:27:25.960Z,16.92
2022-12-17T19:30:12.228Z,17.88
2022-12-17T19:32:57.935Z,18.95
2022-12-17T19:35:43.554Z,17.20
2022-12-17T19:38:28.980Z,15.25
2022-12-17T19:41:17.470Z,13.57
2022-12-17T19:44:05.985Z,15.00
2022-12-17T19:46:53.249Z,15.38
2022-12-17T19:49:41.553Z,15.57
2022-12-17T19:52:30.968Z,14.40
2022-12-17T19:55:23.862Z,14.55
2022-12-17T19:58:10.358Z,17.27
2022-12-17T20:00:56.650Z,17.38
2022-12-17T20:03:45.330Z,18.60
2022-12-17T20:06:35.299Z,18.48
2022-12-17T20:09:21.867Z,15.00
2022-12-17T20:12:10.867Z,11.05
2022-12-17T20:14:57.222Z,14.35
2022-12-17T20:17:55.575Z,18.35
2022-12-17T20:20:45.327Z,13.98
2022-12-17T20:23:32.384Z,15.15
2022-12-17T20:26:19.143Z,17.15
2022-12-17T20:29:06.418Z,14.00
2022-12-17T20:31:53.464Z,14.63
2022-12-17T20:34:40.845Z,15.70
2022-12-17T20:37:27.560Z,14.40
2022-12-17T20:40:13.277Z,14.38
2022-12-17T20:42:58.701Z,14.65
2022-12-17T20:45:52.219Z,14.95
2022-12-17T20:48:40.696Z,15.57
2022-12-17T20:51:28.710Z,12.88
2022-12-17T20:54:15.715Z,14.50
2022-12-17T20:57:03.770Z,12.10
2022-12-17T20:59:49.582Z,14.13
2022-12-17T21:02:36.375Z,14.15
2022-12-17T21:05:22.279Z,14.75
2022-12-17T21:08:07.679Z,9.93
2022-12-17T21:10:56.643Z,14.75
2022-12-17T21:13:42.583Z,13.85
2022-12-17T21:16:30.384Z,14.27
2022-12-17T21:19:18.399Z,15.88
2022-12-17T21:22:06.340Z,17.38
2022-12-17T21:24:56.103Z,18.45
2022-12-17T21:27:42.092Z,16.67
2022-12-17T21:30:28.418Z,14.63
2022-12-17T21:33:13.804Z,15.50
2022-12-17T21:36:01.125Z,10.90
2022-12-17T21:38:53.676Z,13.45
2022-12-17T21:41:44.528Z,12.02
2022-12-17T21:44:32.253Z,11.90
2022-12-17T21:47:17.880Z,11.93
2022-12-17T21:50:03.978Z,12.65
2022-12-17T21:52:49.977Z,11.82
2022-12-17T21:55:36.771Z,12.98
2022-12-17T21:58:22.828Z,8.13
2022-12-17T22:01:20.345Z,9.82
2022-12-17T22:04:06.437Z,14.02
2022-12-17T22:06:56.190Z,13.48
2022-12-17T22:10:06.561Z,14.77
2022-12-17T22:13:10.006Z,12.60
2022-12-17T22:15:55.967Z,15.15
2022-12-17T22:18:42.604Z,13.50
2022-12-17T22:21:28.922Z,8.88
2022-12-17T22:24:17.612Z,14.02
2022-12-17T22:27:03.067Z,13.15
2022-12-17T22:30:07.072Z,9.80
2022-12-17T22:33:02.306Z,13.43
2022-12-17T22:37:19.799Z,12.57
2022-12-17T22:40:33.314Z,14.38
2022-12-17T22:44:41.939Z,13.40
2022-12-17T22:45:48.159Z,13.07
2022-12-17T22:48:35.415Z,11.68
2022-12-17T22:51:22.780Z,13.50
2022-12-17T22:54:16.916Z,12.60
2022-12-17T22:57:36.331Z,13.73
2022-12-17T23:00:16.959Z,14.75
2022-12-17T23:03:03.603Z,13.13
2022-12-17T23:05:49.245Z,13.95
2022-12-17T23:08:34.912Z,13.75
2022-12-17T23:11:26.133Z,14.77
2022-12-17T23:14:11.636Z,15.40
2022-12-17T23:16:56.916Z,14.23
2022-12-17T23:19:42.232Z,13.15
2022-12-17T23:22:27.578Z,13.32
2022-12-17T23:25:13.508Z,13.85
2022-12-17T23:27:58.865Z,14.82
2022-12-17T23:30:44.272Z,14.85
2022-12-17T23:33:29.745Z,12.77
2022-12-17T23:36:21.874Z,14.75
2022-12-17T23:39:08.291Z,14.02
2022-12-17T23:41:56.726Z,14.88
2022-12-17T23:44:42.012Z,12.90
2022-12-17T23:47:27.594Z,12.55
2022-12-17T23:50:12.785Z,17.17
2022-12-17T23:52:58.342Z,17.50
2022-12-17T23:55:43.702Z,15.80
2022-12-17T23:58:29.019Z,15.75
